Normal, IL (61790)

11:07 AM CST on February 09, 2016 (GMT -0600)
Den2 | | Change Station
CLOSE
Current Station
Personal Weather Station
Location: Normal, IL
Elevation: 843 ft
Nearby Weather Stations
Active Advisory: Special Statement Active Notice: Local Storm Report

Elev 843 ft 40.53 °N, 88.99 °W | Updated 15 seconds ago

Snow
Snow
18.1 °F
Feels Like 18 °F
N
2.7
Wind Variable Wind from WNW
Gusts 4.9 mph

Today
High -- | Low -- °F
--% Chance of Precip.
Yesterday
High -- | Low -- °F
Precip. -- in
Pressure 29.99 in
Visibility 2.0 miles
Clouds Mostly Cloudy 1500 ft
Overcast 4500 ft
Windchill 18 °F
Dew Point 6 °F
Humidity 58%
Rainfall 0.00 in
Snow Depth Not available.
6:57 AM 5:23 PM
New Moon, 2% visible
METAR KBMI 091656Z 32018KT 2SM -SN BKN015 OVC045 M08/M12 A2990 RMK AO2 T10831122 P0000 SLP153
Pressure 29.99 in
Visibility 2.0 miles
Clouds Mostly Cloudy 1500 ft
Overcast 4500 ft
Windchill 18 °F
Dew Point 6 °F
Humidity 58%
Rainfall 0.00 in
Snow Depth Not available.
6:57 AM 5:23 PM
New Moon, 2% visible
METAR KBMI 091656Z 32018KT 2SM -SN BKN015 OVC045 M08/M12 A2990 RMK AO2 T10831122 P0000 SLP153

10-Day Weather Forecast

Almanac

Astronomy

Feb. 09, 2016 Rise Set
Actual Time
Civil Twilight
Nautical Twilight
Astronomical Twilight
Moon
Length of Visible Light
Length of Day
Tomorrow will be .
, % of the Moon is Illuminated

Today's Extremes

State Highs State Lows

Community

WunderPhotos

Upload Photos

1,891,631 photos uploaded!

WunderBlog® & News

Nearby

Air Quality

  Air Quality AQ Index Pollutant
Not available.

Snow Depth

Station Depth Elevation

Earthquake Activity

City Distance Mag. Time & Date
Minimum magnitude displayed is 2.5.

Coastal Water Temperatures

Place Temperature

Stations

Nearby Weather Stations

Station Location Temp. Windchill Dew Point Humidity Wind Precip. Elev Updated Type
                   

Watches & Warnings

Special Statement
Issued: 6:52 AM CST Feb. 9, 2016 – National Weather Service

Scattered snow showers will continue across central and southeast
Illinois into this afternoon. While accumulations will remain
minor... there will be slick spots on many area roadways.
Motorists are advised to drive with caution. Slow down and plan on
extra time to arrive at your destination today.


Onton


652 am CST Tue Feb 9 2016

Scattered snow showers will continue across central and southeast
Illinois into this afternoon. While accumulations will remain
minor... there will be slick spots on many area roadways.
Motorists are advised to drive with caution. Slow down and plan on
extra time to arrive at your destination today.


Onton

652 am CST Tue Feb 9 2016

Scattered snow showers will continue across central and southeast
Illinois into this afternoon. While accumulations will remain
minor... there will be slick spots on many area roadways.
Motorists are advised to drive with caution. Slow down and plan on
extra time to arrive at your destination today.


Onton